Aérodrome :
LOGIN :

S'inscrire | Disclaimer

   EN    FR    IT 

 










Légende :    VFR   VFR Marginal   IFR   IFR Intensif   IFR Très Intensif
Visi : 
Plafond : 
>= 8 km
>= 3000ft
5 à 8 km
1000 à 3000 ft
1500m à 5 km
500 à 1000 ft
800 à 1500m
200 à 500 ft
< 800m
< 200 ft
Symboles :   Orages  Brouillard  Fortes neiges  Fortes précipitations  Vent > 20 kt
SIGMETs :   Divers  Orages  Givrage  Turbulence  Onde Orograph.  Cendres Volcan.







- Altitude de l'aérodrome : 55 ft
- Code IATA : DSA
- Voir les cartes d'approche


EGCN - Robin Hood Doncaster Sheffield

DERNIER METAR :
  • 211720Z 19024KT 9999 -RA SCT020 BKN027 BKN033 13/11 Q0992 RERA

METARs EXPIRÉS :
  • 211650Z 19023G34KT 9999 -RA BKN023 OVC037 13/10 Q0992
  • 211620Z 19023KT 9999 -RA BKN023 14/10 Q0992
  • 211550Z 19023G33KT 9999 BKN024 14/10 Q0992
  • 211520Z 18024KT 9999 BKN028 14/10 Q0992
  • 211450Z 19025KT 9999 BKN029 14/09 Q0993

TAF TAF EGCN
Valide du 21 à 18h jusqu'au 22 à 18h UTC


211659Z 2118/2218 18020G33KT 9999 SCT030
BECMG 2118/2120 24012G30KT
TEMPO 2118/2208 6000 SHRA
PROB40
TEMPO 2118/2120 4000 +SHRA BKN014
TEMPO 2200/2204 BKN014
BECMG 2203/2206 30017G30KT
PROB30
TEMPO 2208/2218 7000 SHRA
Pas de NOTAMs connus pour ce terrain.
2 SIGMETs publiés pour la FIR London (EGTT) :
 
Turbulence forte
EGTT SIGMET 05 VALID 211800/212200 EGRR
EGTT LONDON FIR SEV TURB FCST SE OF LINE N5500 W00059 - N5332 W00530 SFC/FL060 STNR WKN=
Turbulence forte
EGTT SIGMET 04 VALID 211400/211800 EGRR
EGTT LONDON FIR SEV TURB FCST S OF N5400 SFC/FL060 STNR WKN=



MET'MAP, la Météo Aéronautique d'un coup d'oeil ! - Copyright ORBIFLY Décembre 2007 - Disclaimer

ORBIFLY MET'MAP TEAM :

Programmation & Développement : Alexandra Zaïnal
Conception & Développement : Baudouin d'Aumeries
Co-Programmation & Développement : Marc-Olivier Méhu
Soutien technique & logistique : Manuel Goepfert

Contact : metmap@orbifly.com




SOURCES & CREDITS :

   NOAA